createdAt,value
2022-12-23T00:01:24.304Z,74.72
2022-12-23T00:03:53.136Z,74.66
2022-12-23T00:06:21.376Z,74.58
2022-12-23T00:08:49.397Z,74.56
2022-12-23T00:11:19.947Z,74.58
2022-12-23T00:14:06.396Z,74.65
2022-12-23T00:16:37.397Z,74.80
2022-12-23T00:19:06.220Z,74.87
2022-12-23T00:21:35.891Z,75.06
2022-12-23T00:24:04.508Z,75.05
2022-12-23T00:26:32.358Z,75.19
2022-12-23T00:29:00.579Z,75.14
2022-12-23T00:31:28.827Z,75.00
2022-12-23T00:33:56.717Z,75.14
2022-12-23T00:36:28.008Z,74.98
2022-12-23T00:39:17.576Z,75.21
2022-12-23T00:42:04.814Z,75.26
2022-12-23T00:44:33.067Z,75.30
2022-12-23T00:47:00.990Z,75.35
2022-12-23T00:49:44.559Z,75.32
2022-12-23T00:52:15.750Z,75.32
2022-12-23T00:54:43.920Z,75.12
2022-12-23T00:57:12.142Z,75.02
2022-12-23T00:59:40.021Z,74.73
2022-12-23T01:02:30.179Z,74.66
2022-12-23T01:05:16.919Z,74.75
2022-12-23T01:07:45.059Z,74.81
2022-12-23T01:10:13.116Z,74.65
2022-12-23T01:12:41.290Z,74.72
2022-12-23T01:15:09.589Z,74.44
2022-12-23T01:17:37.724Z,74.32
2022-12-23T01:20:06.467Z,74.17
2022-12-23T01:22:34.337Z,73.86
2022-12-23T01:25:02.617Z,73.78
2022-12-23T01:27:30.917Z,74.00
2022-12-23T01:29:59.153Z,74.04
2022-12-23T01:32:27.235Z,74.04
2022-12-23T01:34:55.087Z,74.20
2022-12-23T01:37:23.544Z,74.01
2022-12-23T01:39:51.498Z,73.97
2022-12-23T01:42:39.787Z,73.76
2022-12-23T01:45:30.587Z,73.92
2022-12-23T01:47:58.538Z,73.83
2022-12-23T01:50:41.678Z,73.92
2022-12-23T01:53:19.645Z,74.18
2022-12-23T01:55:53.329Z,74.23
2022-12-23T01:58:27.525Z,74.19
2022-12-23T02:01:16.895Z,74.28
2022-12-23T02:03:46.973Z,74.14
2022-12-23T02:06:57.530Z,74.02
2022-12-23T02:09:34.309Z,74.11
2022-12-23T02:12:31.827Z,74.15
2022-12-23T02:15:27.874Z,74.22
2022-12-23T02:18:11.073Z,74.43
2022-12-23T02:20:59.963Z,74.63
2022-12-23T02:23:37.145Z,74.63
2022-12-23T02:26:30.078Z,74.77
2022-12-23T02:29:37.311Z,74.77
2022-12-23T02:32:16.780Z,74.58
2022-12-23T02:35:11.473Z,74.48
2022-12-23T02:37:48.259Z,74.40
2022-12-23T02:40:29.342Z,74.59
2022-12-23T02:43:12.503Z,74.72
2022-12-23T02:45:54.801Z,74.85
2022-12-23T02:48:35.287Z,74.79
2022-12-23T02:51:06.364Z,74.84
2022-12-23T02:53:56.611Z,74.75
2022-12-23T02:56:27.515Z,74.62
2022-12-23T02:59:00.958Z,74.63
2022-12-23T03:01:32.153Z,74.51
2022-12-23T03:04:00.544Z,74.53
2022-12-23T03:06:33.281Z,74.54
2022-12-23T03:09:01.610Z,74.68
2022-12-23T03:12:06.127Z,74.72
2022-12-23T03:15:05.289Z,74.60
2022-12-23T03:17:54.228Z,74.57
2022-12-23T03:20:39.276Z,74.46
2022-12-23T03:23:23.806Z,74.33
2022-12-23T03:26:14.239Z,74.26
2022-12-23T03:29:00.760Z,74.35
2022-12-23T03:31:31.805Z,74.41
2022-12-23T03:34:08.671Z,74.61
2022-12-23T03:36:49.405Z,74.70
2022-12-23T03:39:20.364Z,74.68
2022-12-23T03:41:54.115Z,74.58
2022-12-23T03:44:30.606Z,74.55
2022-12-23T03:47:07.088Z,74.60
2022-12-23T03:50:11.620Z,74.80
2022-12-23T03:52:45.804Z,74.99
2022-12-23T03:55:20.842Z,75.27
2022-12-23T03:57:58.367Z,75.36
2022-12-23T04:00:30.574Z,75.33
2022-12-23T04:03:22.050Z,75.19
2022-12-23T04:05:57.421Z,75.09
2022-12-23T04:08:37.617Z,75.00
2022-12-23T04:11:06.329Z,75.16
2022-12-23T04:13:34.670Z,75.30
2022-12-23T04:16:03.186Z,75.49
2022-12-23T04:18:31.565Z,75.78
2022-12-23T04:20:59.746Z,75.87
2022-12-23T04:23:27.675Z,75.86
2022-12-23T04:25:56.177Z,75.82
2022-12-23T04:28:24.314Z,75.70
2022-12-23T04:30:52.523Z,75.78
2022-12-23T04:33:20.419Z,75.97
2022-12-23T04:35:48.317Z,76.18
2022-12-23T04:38:16.533Z,76.38
2022-12-23T04:40:47.814Z,76.37
2022-12-23T04:43:16.068Z,76.24
2022-12-23T04:45:43.972Z,76.31
2022-12-23T04:48:12.194Z,76.38
2022-12-23T04:50:40.222Z,76.63
2022-12-23T04:53:08.342Z,76.63
2022-12-23T04:55:36.255Z,76.93
2022-12-23T04:58:04.633Z,77.06
2022-12-23T05:00:39.117Z,77.13
2022-12-23T05:03:08.026Z,77.36
2022-12-23T05:05:36.357Z,77.51
2022-12-23T05:08:05.489Z,77.44
2022-12-23T05:10:33.481Z,77.36
2022-12-23T05:13:01.615Z,77.56
2022-12-23T05:15:33.096Z,77.70
2022-12-23T05:18:01.337Z,77.61
2022-12-23T05:20:29.277Z,77.56
2022-12-23T05:22:57.792Z,77.70
2022-12-23T05:25:25.702Z,77.60
2022-12-23T05:27:53.691Z,77.50
2022-12-23T05:30:21.967Z,77.55
2022-12-23T05:32:54.316Z,77.49
2022-12-23T05:35:23.776Z,77.49
2022-12-23T05:37:52.134Z,77.55
2022-12-23T05:40:23.879Z,77.52
2022-12-23T05:42:53.520Z,77.38
2022-12-23T05:45:21.621Z,77.57
2022-12-23T05:47:49.563Z,77.64
2022-12-23T05:50:17.540Z,77.68
2022-12-23T05:52:45.823Z,77.67
2022-12-23T05:55:14.057Z,77.61
2022-12-23T05:57:42.039Z,77.67
2022-12-23T06:00:10.937Z,77.76
2022-12-23T06:02:42.097Z,77.60
2022-12-23T06:05:11.865Z,77.49
2022-12-23T06:07:40.687Z,77.47
2022-12-23T06:10:10.507Z,77.49
2022-12-23T06:12:38.840Z,77.56
2022-12-23T06:15:07.860Z,77.69
2022-12-23T06:17:35.860Z,77.56
2022-12-23T06:20:04.671Z,77.57
2022-12-23T06:22:32.933Z,77.43
2022-12-23T06:25:00.954Z,77.40
2022-12-23T06:27:28.950Z,77.16
2022-12-23T06:29:57.330Z,77.12
2022-12-23T06:32:25.506Z,77.34
2022-12-23T06:34:53.820Z,77.54
2022-12-23T06:37:21.839Z,77.78
2022-12-23T06:39:49.875Z,77.85
2022-12-23T06:42:17.763Z,77.98
2022-12-23T06:44:45.751Z,77.88
2022-12-23T06:47:13.789Z,77.57
2022-12-23T06:49:41.906Z,77.68
2022-12-23T06:52:10.420Z,77.77
2022-12-23T06:54:38.579Z,77.85
2022-12-23T06:57:06.591Z,77.75
2022-12-23T06:59:34.801Z,77.75
2022-12-23T07:02:03.666Z,77.77
2022-12-23T07:04:31.973Z,77.77
2022-12-23T07:07:00.176Z,77.87
2022-12-23T07:09:28.161Z,77.80
2022-12-23T07:11:56.023Z,77.68
2022-12-23T07:14:24.191Z,77.74
2022-12-23T07:16:52.237Z,77.81
2022-12-23T07:19:20.402Z,77.86
2022-12-23T07:21:48.378Z,77.95
2022-12-23T07:24:17.066Z,77.77
2022-12-23T07:26:45.041Z,77.81
2022-12-23T07:29:13.164Z,77.76
2022-12-23T07:31:41.781Z,77.83
2022-12-23T07:34:10.140Z,78.02
2022-12-23T07:36:38.078Z,78.04
2022-12-23T07:39:06.796Z,78.25
2022-12-23T07:41:34.714Z,78.19
2022-12-23T07:44:09.002Z,77.96
2022-12-23T07:46:38.036Z,78.12
2022-12-23T07:49:06.522Z,78.11
2022-12-23T07:51:34.406Z,78.49
2022-12-23T07:54:02.914Z,78.55
2022-12-23T07:56:30.940Z,78.77
2022-12-23T07:58:58.816Z,78.96
2022-12-23T08:01:27.176Z,79.15
2022-12-23T08:03:55.278Z,79.22
2022-12-23T08:06:23.620Z,79.61
2022-12-23T08:08:51.509Z,79.87
2022-12-23T08:11:19.993Z,80.18
2022-12-23T08:13:49.257Z,80.42
2022-12-23T08:16:17.409Z,80.70
2022-12-23T08:18:45.783Z,80.69
2022-12-23T08:21:19.639Z,80.88
2022-12-23T08:23:48.527Z,80.89
2022-12-23T08:26:19.477Z,80.99
2022-12-23T08:28:48.830Z,81.09
2022-12-23T08:31:21.039Z,81.19
2022-12-23T08:33:52.068Z,81.16
2022-12-23T08:36:23.611Z,81.03
2022-12-23T08:38:54.722Z,80.90
2022-12-23T08:41:29.586Z,81.08
2022-12-23T08:43:57.779Z,81.07
2022-12-23T08:46:26.764Z,81.16
2022-12-23T08:48:55.379Z,81.17
2022-12-23T08:51:25.092Z,81.25
2022-12-23T08:54:01.070Z,81.26
2022-12-23T08:56:32.401Z,81.10
2022-12-23T08:59:00.885Z,81.02
2022-12-23T09:01:31.621Z,81.16
2022-12-23T09:04:06.051Z,81.29
2022-12-23T09:06:43.423Z,81.25
2022-12-23T09:09:15.681Z,81.46
2022-12-23T09:11:44.222Z,81.50
2022-12-23T09:14:12.606Z,81.61
2022-12-23T09:16:40.804Z,81.57
2022-12-23T09:19:09.408Z,81.64
2022-12-23T09:21:37.621Z,81.56
2022-12-23T09:24:06.280Z,81.42
2022-12-23T09:26:34.194Z,81.44
2022-12-23T09:29:02.314Z,81.56
2022-12-23T09:31:36.242Z,81.54
2022-12-23T09:34:05.697Z,81.48
2022-12-23T09:36:34.153Z,82.75
2022-12-23T09:39:02.382Z,84.94
2022-12-23T09:41:48.718Z,82.79
2022-12-23T09:44:25.978Z,80.83
2022-12-23T09:47:01.769Z,80.10
2022-12-23T09:49:29.949Z,79.78
2022-12-23T09:52:04.670Z,79.71
2022-12-23T09:54:46.407Z,79.94
2022-12-23T09:57:23.883Z,80.00
2022-12-23T10:00:06.961Z,80.07
2022-12-23T10:02:53.864Z,80.14
2022-12-23T10:05:53.575Z,80.14
2022-12-23T10:08:33.678Z,79.96
2022-12-23T10:11:10.972Z,79.84
2022-12-23T10:13:43.772Z,79.75
2022-12-23T10:16:19.525Z,80.01
2022-12-23T10:18:53.886Z,80.17
2022-12-23T10:21:47.541Z,80.52
2022-12-23T10:24:25.403Z,80.71
2022-12-23T10:27:06.561Z,80.85
2022-12-23T10:29:34.675Z,80.99
2022-12-23T10:32:11.936Z,80.85
2022-12-23T10:34:42.864Z,80.87
2022-12-23T10:37:34.897Z,80.72
2022-12-23T10:40:27.721Z,80.53
2022-12-23T10:43:04.742Z,80.55
2022-12-23T10:45:35.277Z,80.68
2022-12-23T10:48:06.073Z,80.65
2022-12-23T10:50:37.020Z,80.70
2022-12-23T10:53:10.545Z,80.85
2022-12-23T10:55:39.541Z,80.82
2022-12-23T10:58:18.474Z,80.83
2022-12-23T11:00:52.584Z,80.84
2022-12-23T11:03:32.052Z,80.69
2022-12-23T11:06:01.329Z,80.44
2022-12-23T11:08:31.467Z,80.40
2022-12-23T11:11:01.182Z,80.53
2022-12-23T11:13:32.310Z,80.59
2022-12-23T11:16:24.110Z,80.54
2022-12-23T11:19:00.961Z,80.54
2022-12-23T11:21:30.845Z,80.67
2022-12-23T11:24:06.972Z,80.64
2022-12-23T11:26:36.091Z,80.67
2022-12-23T11:29:11.446Z,80.55
2022-12-23T11:31:42.648Z,80.68
2022-12-23T11:34:15.915Z,80.69
2022-12-23T11:36:54.694Z,80.60
2022-12-23T11:39:28.065Z,80.51
2022-12-23T11:42:27.380Z,80.61
2022-12-23T11:44:59.630Z,80.29
2022-12-23T11:47:34.028Z,80.32
2022-12-23T11:50:20.692Z,80.43
2022-12-23T11:52:55.776Z,80.38
2022-12-23T11:55:30.160Z,85.34
2022-12-23T11:58:00.588Z,82.61
2022-12-23T12:00:40.794Z,79.98
2022-12-23T12:03:19.080Z,79.07
2022-12-23T12:05:51.698Z,78.76
2022-12-23T12:08:24.862Z,78.83
2022-12-23T12:11:00.726Z,78.62
2022-12-23T12:13:32.560Z,78.73
2022-12-23T12:16:12.456Z,78.90
2022-12-23T12:18:43.648Z,78.98
2022-12-23T12:21:16.598Z,78.95
2022-12-23T12:24:14.839Z,78.80
2022-12-23T12:26:44.379Z,78.70
2022-12-23T12:29:16.843Z,78.71
2022-12-23T12:31:51.638Z,78.69
2022-12-23T12:34:23.523Z,79.00
2022-12-23T12:37:10.618Z,79.06
2022-12-23T12:39:48.956Z,78.98
2022-12-23T12:42:27.729Z,78.97
2022-12-23T12:44:59.865Z,79.01
2022-12-23T12:48:01.418Z,78.88
2022-12-23T12:50:34.623Z,78.83
2022-12-23T12:53:13.050Z,78.85
2022-12-23T12:55:46.277Z,78.83
2022-12-23T12:58:23.792Z,78.76
2022-12-23T13:01:18.861Z,78.77
2022-12-23T13:04:20.737Z,78.96
2022-12-23T13:07:23.671Z,79.19
2022-12-23T13:10:06.349Z,79.40
2022-12-23T13:12:54.082Z,79.52
2022-12-23T13:15:28.274Z,79.62
2022-12-23T13:18:03.464Z,79.58
2022-12-23T13:20:39.698Z,79.56
2022-12-23T13:23:42.428Z,79.54
2022-12-23T13:26:18.380Z,79.56
2022-12-23T13:29:03.715Z,79.59
2022-12-23T13:32:01.772Z,79.61
2022-12-23T13:34:42.493Z,79.51
2022-12-23T13:37:10.421Z,79.33
2022-12-23T13:39:55.331Z,79.36
2022-12-23T13:42:35.393Z,79.41
2022-12-23T13:45:05.899Z,79.48
2022-12-23T13:48:05.348Z,79.65
2022-12-23T13:50:40.435Z,79.76
2022-12-23T13:53:53.579Z,79.95
2022-12-23T13:56:35.071Z,79.92
2022-12-23T13:59:03.227Z,79.73
2022-12-23T14:01:44.004Z,79.70
2022-12-23T14:04:32.927Z,79.76
2022-12-23T14:07:18.143Z,79.85
2022-12-23T14:09:53.500Z,80.02
2022-12-23T14:12:39.261Z,80.39
2022-12-23T14:15:35.549Z,80.64
2022-12-23T14:18:04.866Z,81.02
2022-12-23T14:20:45.036Z,81.09
2022-12-23T14:23:41.190Z,81.30
2022-12-23T14:26:27.527Z,81.46
2022-12-23T14:29:14.247Z,81.46
2022-12-23T14:31:55.474Z,81.46
2022-12-23T14:34:32.835Z,81.44
2022-12-23T14:37:25.477Z,81.40
2022-12-23T14:39:54.302Z,81.40
2022-12-23T14:42:40.283Z,81.26
2022-12-23T14:45:35.673Z,81.19
2022-12-23T14:48:42.134Z,81.16
2022-12-23T14:51:10.126Z,81.31
2022-12-23T14:53:58.520Z,81.27
2022-12-23T14:56:47.432Z,81.14
2022-12-23T14:59:37.863Z,81.17
2022-12-23T15:02:22.155Z,81.24
2022-12-23T15:04:56.088Z,81.33
2022-12-23T15:07:46.714Z,81.20
2022-12-23T15:10:25.789Z,81.13
2022-12-23T15:12:58.310Z,81.27
2022-12-23T15:15:29.857Z,81.37
2022-12-23T15:18:07.016Z,81.20
2022-12-23T15:20:35.300Z,81.00
2022-12-23T15:23:10.363Z,80.96
2022-12-23T15:25:46.122Z,80.90
2022-12-23T15:28:22.838Z,80.85
2022-12-23T15:30:56.469Z,80.77
2022-12-23T15:36:30.648Z,80.60
2022-12-23T15:39:00.893Z,80.53
2022-12-23T15:41:30.022Z,80.42
2022-12-23T15:44:01.871Z,80.55
2022-12-23T15:46:32.129Z,80.53
2022-12-23T15:49:00.191Z,80.47
2022-12-23T15:52:07.273Z,80.56
2022-12-23T15:54:40.244Z,80.40
2022-12-23T15:57:12.144Z,80.45
2022-12-23T15:59:40.388Z,80.37
2022-12-23T16:02:58.447Z,80.35
2022-12-23T16:05:07.959Z,80.25
2022-12-23T16:07:41.129Z,80.26
2022-12-23T16:10:36.088Z,80.19
2022-12-23T16:13:04.400Z,80.28
2022-12-23T16:15:33.395Z,80.30
2022-12-23T16:18:21.711Z,80.41
2022-12-23T16:20:57.772Z,80.29
2022-12-23T16:23:30.242Z,80.35
2022-12-23T16:26:00.644Z,80.40
2022-12-23T16:28:41.026Z,80.59
2022-12-23T16:31:11.005Z,80.60
2022-12-23T16:33:46.016Z,80.69
2022-12-23T16:36:15.056Z,80.71
2022-12-23T16:38:43.326Z,80.72
2022-12-23T16:41:11.303Z,80.73
2022-12-23T16:43:40.730Z,80.60
2022-12-23T16:46:17.431Z,80.35
2022-12-23T16:49:00.587Z,80.51
2022-12-23T16:51:33.622Z,80.38
2022-12-23T16:54:02.166Z,80.18
2022-12-23T16:56:35.393Z,80.13
2022-12-23T16:59:04.460Z,79.97
2022-12-23T17:01:35.188Z,79.92
2022-12-23T17:04:03.485Z,79.83
2022-12-23T17:06:31.869Z,79.77
2022-12-23T17:08:59.816Z,79.56
2022-12-23T17:11:41.801Z,79.36
2022-12-23T17:14:16.682Z,79.31
2022-12-23T17:16:46.041Z,79.41
2022-12-23T17:19:15.627Z,79.30
2022-12-23T17:21:46.109Z,79.22
2022-12-23T17:24:21.991Z,79.39
2022-12-23T17:26:51.364Z,79.35
2022-12-23T17:29:20.227Z,79.29
2022-12-23T17:31:49.042Z,79.27
2022-12-23T17:34:23.004Z,79.12
2022-12-23T17:36:51.485Z,78.93
2022-12-23T17:39:20.516Z,78.90
2022-12-23T17:41:48.783Z,78.80
2022-12-23T17:44:18.222Z,78.88
2022-12-23T17:46:47.314Z,78.76
2022-12-23T17:49:15.533Z,78.61
2022-12-23T17:51:44.028Z,78.63
2022-12-23T17:54:21.703Z,78.32
2022-12-23T17:56:51.036Z,78.12
2022-12-23T17:59:19.221Z,77.99
2022-12-23T18:01:47.320Z,77.83
2022-12-23T18:04:15.680Z,77.99
2022-12-23T18:06:43.985Z,78.02
2022-12-23T18:09:11.931Z,78.10
2022-12-23T18:11:44.037Z,77.87
2022-12-23T18:14:19.791Z,77.51
2022-12-23T18:16:48.071Z,77.25
2022-12-23T18:19:19.847Z,77.24
2022-12-23T18:21:48.445Z,77.19
2022-12-23T18:24:16.851Z,77.30
2022-12-23T18:26:45.847Z,77.24
2022-12-23T18:29:14.210Z,77.21
2022-12-23T18:31:50.964Z,77.18
2022-12-23T18:34:20.476Z,76.91
2022-12-23T18:36:48.985Z,76.73
2022-12-23T18:39:17.828Z,76.61
2022-12-23T18:41:46.132Z,76.56
2022-12-23T18:44:21.461Z,76.75
2022-12-23T18:46:50.050Z,76.61
2022-12-23T18:49:18.142Z,76.70
2022-12-23T18:51:46.476Z,76.59
2022-12-23T18:54:16.149Z,76.35
2022-12-23T18:56:44.288Z,76.28
2022-12-23T18:59:22.535Z,76.03
2022-12-23T19:01:56.770Z,76.00
2022-12-23T19:04:26.168Z,76.07
2022-12-23T19:06:56.384Z,76.08
2022-12-23T19:09:25.200Z,76.10
2022-12-23T19:11:54.362Z,75.84
2022-12-23T19:14:22.784Z,75.80
2022-12-23T19:16:52.344Z,75.69
2022-12-23T19:19:22.032Z,75.70
2022-12-23T19:21:50.066Z,75.66
2022-12-23T19:24:18.155Z,75.61
2022-12-23T19:26:46.355Z,75.76
2022-12-23T19:29:14.530Z,75.93
2022-12-23T19:31:42.500Z,76.09
2022-12-23T19:34:14.931Z,75.83
2022-12-23T19:36:44.286Z,75.60
2022-12-23T19:39:16.631Z,75.64
2022-12-23T19:41:45.553Z,75.48
2022-12-23T19:44:14.385Z,75.42
2022-12-23T19:46:42.554Z,75.53
2022-12-23T19:49:17.596Z,75.49
2022-12-23T19:51:48.485Z,75.55
2022-12-23T19:54:17.794Z,75.44
2022-12-23T19:56:46.100Z,75.32
2022-12-23T19:59:14.137Z,75.24
2022-12-23T20:01:42.615Z,75.20
2022-12-23T20:04:10.989Z,75.30
2022-12-23T20:06:41.127Z,75.25
2022-12-23T20:09:12.540Z,75.25
2022-12-23T20:11:43.648Z,75.57
2022-12-23T20:14:13.793Z,75.46
2022-12-23T20:16:42.832Z,75.17
2022-12-23T20:19:11.192Z,75.28
2022-12-23T20:21:39.670Z,75.32
2022-12-23T20:24:08.349Z,75.45
2022-12-23T20:26:36.548Z,75.49
2022-12-23T20:29:05.947Z,75.76
2022-12-23T20:31:38.133Z,75.74
2022-12-23T20:34:07.819Z,75.70
2022-12-23T20:36:36.937Z,75.71
2022-12-23T20:39:06.307Z,75.72
2022-12-23T20:41:34.655Z,75.89
2022-12-23T20:44:34.061Z,76.07
2022-12-23T20:46:51.020Z,76.35
2022-12-23T20:49:19.103Z,76.42
2022-12-23T20:51:47.458Z,76.38
2022-12-23T20:54:15.613Z,76.46
2022-12-23T20:56:43.617Z,76.55
2022-12-23T20:59:12.051Z,76.42
2022-12-23T21:01:41.665Z,76.51
2022-12-23T21:04:13.234Z,76.55
2022-12-23T21:06:42.290Z,76.65
2022-12-23T21:09:13.107Z,76.78
2022-12-23T21:11:44.460Z,76.84
2022-12-23T21:14:14.996Z,76.91
2022-12-23T21:16:43.879Z,77.02
2022-12-23T21:19:19.726Z,77.01
2022-12-23T21:21:48.736Z,76.93
2022-12-23T21:24:18.123Z,76.95
2022-12-23T21:26:51.874Z,77.10
2022-12-23T21:29:24.488Z,77.05
2022-12-23T21:31:52.544Z,77.10
2022-12-23T21:34:20.949Z,77.30
2022-12-23T21:36:49.225Z,77.42
2022-12-23T21:39:17.426Z,77.33
2022-12-23T21:41:46.336Z,77.50
2022-12-23T21:44:15.028Z,77.60
2022-12-23T21:46:43.823Z,77.85
2022-12-23T21:49:13.251Z,77.94
2022-12-23T21:51:41.953Z,78.05
2022-12-23T21:54:11.504Z,77.81
2022-12-23T21:56:40.474Z,77.74
2022-12-23T21:59:12.825Z,77.81
2022-12-23T22:01:43.014Z,77.82
2022-12-23T22:04:12.392Z,77.68
2022-12-23T22:06:44.070Z,77.67
2022-12-23T22:09:16.347Z,77.92
2022-12-23T22:11:45.744Z,78.15
2022-12-23T22:14:19.904Z,78.20
2022-12-23T22:16:48.480Z,78.22
2022-12-23T22:19:16.578Z,78.24
2022-12-23T22:21:45.088Z,78.26
2022-12-23T22:24:13.497Z,78.03
2022-12-23T22:26:42.223Z,77.73
2022-12-23T22:29:11.511Z,77.66
2022-12-23T22:31:44.788Z,77.65
2022-12-23T22:34:16.744Z,77.79
2022-12-23T22:36:45.139Z,77.97
2022-12-23T22:39:20.079Z,78.28
2022-12-23T22:41:51.005Z,78.42
2022-12-23T22:44:20.802Z,78.36
2022-12-23T22:46:48.958Z,78.38
2022-12-23T22:49:17.339Z,78.25
2022-12-23T22:51:45.929Z,78.30
2022-12-23T22:54:14.452Z,78.41
2022-12-23T22:56:42.587Z,78.51
2022-12-23T22:59:19.683Z,78.61
2022-12-23T23:01:49.310Z,78.67
2022-12-23T23:04:18.075Z,78.53
2022-12-23T23:06:46.184Z,78.48
2022-12-23T23:09:18.048Z,78.33
2022-12-23T23:11:46.735Z,78.28
2022-12-23T23:14:15.096Z,78.31
2022-12-23T23:16:43.400Z,78.62
2022-12-23T23:19:12.490Z,78.63
2022-12-23T23:21:40.670Z,78.82
2022-12-23T23:24:08.929Z,78.92
2022-12-23T23:26:37.651Z,79.02
2022-12-23T23:29:05.716Z,79.02
2022-12-23T23:31:42.727Z,79.04
2022-12-23T23:34:12.785Z,78.87
2022-12-23T23:36:42.093Z,78.79
2022-12-23T23:39:12.618Z,78.76
2022-12-23T23:41:41.456Z,78.68
2022-12-23T23:44:10.374Z,78.75
2022-12-23T23:46:39.498Z,78.58
2022-12-23T23:49:07.404Z,78.27
2022-12-23T23:51:35.678Z,78.08
2022-12-23T23:54:03.942Z,77.94
2022-12-23T23:56:37.817Z,77.77
2022-12-23T23:59:09.222Z,77.77
